📊 Raw Sensor Data

Showing records 41201 to 41225 of 84,978 total

ID Distance (ft) Battery V Battery A Int Temp (°F) Int Humid (%) Ext Temp (°F) Solar V RSSI SNR Time Stamp
43790 14.9 3.92 -5 68 48 69 0.00 -67 8 06/17/2025 10:00 PM
43789 14.9 4.00 -5 68 49 69 0.00 -68 7 06/17/2025 09:45 PM
43788 15.0 3.93 -5 69 50 69 0.10 -68 8 06/17/2025 09:30 PM
43787 14.9 3.93 -5 70 52 70 0.10 -67 8 06/17/2025 09:15 PM
43786 15.0 4.00 -5 71 53 71 0.00 -66 8 06/17/2025 09:00 PM
43785 15.0 3.93 -5 73 55 72 1.50 -68 8 06/17/2025 08:45 PM
43784 15.0 3.99 -10 77 56 74 4.20 -67 7 06/17/2025 08:30 PM
43783 15.1 3.94 0 82 55 77 4.50 -68 7 06/17/2025 08:15 PM
43782 15.1 4.02 0 86 54 80 4.50 -67 8 06/17/2025 08:00 PM
43781 15.1 4.03 7 90 53 84 4.50 -68 8 06/17/2025 07:45 PM
43780 15.2 4.04 10 92 52 86 4.50 -67 8 06/17/2025 07:30 PM
43779 15.2 4.05 6 93 52 86 4.60 -68 7 06/17/2025 07:15 PM
43778 15.2 4.01 23 95 52 89 4.50 -69 8 06/17/2025 07:00 PM
43777 15.2 4.05 37 97 51 89 4.50 -67 8 06/17/2025 06:45 PM
43776 15.2 3.98 0 98 51 90 5.10 -67 8 06/17/2025 06:30 PM
43775 15.2 3.98 0 99 50 91 5.10 -68 7 06/17/2025 06:15 PM
43774 15.2 3.98 0 101 50 91 5.10 -68 8 06/17/2025 06:00 PM
43773 15.2 3.98 0 102 49 91 5.10 -68 7 06/17/2025 05:45 PM
43772 15.2 4.06 0 103 49 92 5.10 -68 6 06/17/2025 05:30 PM
43771 15.2 3.98 0 103 48 94 5.10 -68 8 06/17/2025 05:15 PM
43770 15.2 4.13 0 104 47 94 5.10 -68 8 06/17/2025 05:00 PM
43769 15.3 3.99 0 104 46 96 5.10 -69 8 06/17/2025 04:45 PM
43768 15.3 3.98 0 104 46 93 5.10 -71 8 06/17/2025 04:30 PM
43767 15.2 3.98 0 104 45 95 5.10 -68 8 06/17/2025 04:15 PM
43766 15.2 3.98 0 103 45 96 5.10 -67 7 06/17/2025 04:00 PM